Time;durP1;ratioP1;P1;durP2;ratioP2;P2;SDS_P1;SDS_P2;PMS_P1;PMS_P2;Temp;Humidity;BMP_temperature;BMP_pressure;BME280_temperature;BME280_humidity;BME280_pressure;Samples;Min_cycle;Max_cycle;Signal;HPM_P1;HPM_P2
2022/07/16 00:03:35;;;;;;;5.00;2.40;;;;;;;17.29;57.15;102022.53;5271024;28;20056;-77
2022/07/16 00:06:06;;;;;;;5.07;1.80;;;;;;;17.26;57.06;102023.56;5270574;28;20059;-77
2022/07/16 00:08:37;;;;;;;4.77;2.13;;;;;;;17.03;57.76;102030.44;5270918;28;20055;-76
2022/07/16 00:11:09;;;;;;;8.90;2.50;;;;;;;17.29;56.97;102020.72;5271062;28;20037;-77
2022/07/16 00:13:42;;;;;;;5.07;2.10;;;;;;;17.28;57.27;102032.25;5271332;28;20753;-76
2022/07/16 00:16:14;;;;;;;4.50;2.00;;;;;;;17.27;57.21;102029.72;5271371;28;20128;-77
2022/07/16 00:21:36;;;;;;;7.27;2.80;;;;;;;17.24;57.41;102041.38;5270930;28;20091;-76
2022/07/16 00:24:07;;;;;;;4.20;1.80;;;;;;;17.23;57.59;102037.03;5253030;28;20067;-76
2022/07/16 00:26:38;;;;;;;4.40;2.17;;;;;;;17.08;58.28;102036.28;5252787;28;20516;-77
2022/07/16 00:29:10;;;;;;;7.73;2.60;;;;;;;17.08;57.79;102035.41;5271058;28;20032;-76
2022/07/16 00:31:42;;;;;;;6.40;2.60;;;;;;;17.00;58.56;102039.44;5271206;28;20033;-76
2022/07/16 00:34:14;;;;;;;6.57;2.40;;;;;;;16.91;59.47;102050.66;5271900;28;20020;-76
2022/07/16 00:36:46;;;;;;;8.47;2.63;;;;;;;16.84;59.86;102039.66;5257354;28;20684;-76
2022/07/16 00:39:18;;;;;;;4.63;2.27;;;;;;;16.89;58.84;102037.53;5270641;28;20057;-76
2022/07/16 00:41:49;;;;;;;6.60;2.37;;;;;;;17.04;58.23;102038.28;5253392;28;20047;-76
2022/07/16 00:44:20;;;;;;;7.87;2.60;;;;;;;16.97;58.66;102049.38;5270511;28;20028;-77
2022/07/16 00:46:52;;;;;;;6.53;2.77;;;;;;;17.07;58.09;102042.50;5270802;28;20039;-76
2022/07/16 00:49:23;;;;;;;6.20;2.97;;;;;;;17.05;58.26;102042.59;5269979;28;20040;-77
2022/07/16 00:51:55;;;;;;;9.60;2.67;;;;;;;17.00;58.54;102038.59;5270769;28;20021;-76
2022/07/16 00:54:26;;;;;;;8.50;2.47;;;;;;;17.10;58.48;102037.06;5270751;28;20024;-73
2022/07/16 00:56:57;;;;;;;6.13;2.57;;;;;;;17.00;58.70;102033.31;5251992;28;20126;-76
2022/07/16 00:59:29;;;;;;;7.10;2.37;;;;;;;17.02;58.71;102036.69;5256412;28;20031;-77
2022/07/16 01:02:00;;;;;;;6.53;2.23;;;;;;;17.16;58.64;102039.25;5272393;28;20024;-77
2022/07/16 01:04:33;;;;;;;5.37;2.43;;;;;;;16.78;61.78;102034.75;5272075;22;20056;-76
2022/07/16 01:07:05;;;;;;;3.93;2.20;;;;;;;17.13;58.76;102035.97;5251071;28;20025;-76
2022/07/16 01:09:37;;;;;;;5.93;2.30;;;;;;;16.96;59.64;102030.03;5249596;28;20117;-77
2022/07/16 01:12:09;;;;;;;4.87;2.30;;;;;;;17.11;59.12;102033.44;5250021;28;20021;-77
2022/07/16 01:14:41;;;;;;;7.47;2.63;;;;;;;16.77;61.33;102025.13;5249785;28;20025;-77
2022/07/16 01:17:12;;;;;;;5.47;2.33;;;;;;;17.11;58.79;102028.16;5249854;28;20033;-77
2022/07/16 01:19:43;;;;;;;4.50;2.57;;;;;;;17.13;58.65;102025.38;5249091;28;20025;-76
2022/07/16 01:22:20;;;;;;;9.90;2.60;;;;;;;17.13;59.02;102026.25;5249380;28;20025;-77
2022/07/16 01:24:52;;;;;;;5.27;2.57;;;;;;;17.06;58.83;102027.59;5250049;28;20017;-77
2022/07/16 01:27:23;;;;;;;5.07;3.37;;;;;;;16.92;58.90;102008.22;5249370;28;20078;-77
2022/07/16 01:29:55;;;;;;;4.57;2.40;;;;;;;16.93;59.10;102011.72;5250095;28;20029;-77
2022/07/16 01:32:26;;;;;;;5.17;2.70;;;;;;;17.05;58.80;102017.97;5248788;28;20364;-73
2022/07/16 01:34:57;;;;;;;5.23;2.40;;;;;;;16.91;60.07;102025.03;5248407;28;20032;-77
2022/07/16 01:37:29;;;;;;;7.03;2.37;;;;;;;16.99;59.21;102021.00;5249552;28;20035;-76
2022/07/16 01:40:00;;;;;;;4.67;2.23;;;;;;;17.04;59.00;102032.13;5249333;28;20029;-76
2022/07/16 01:42:32;;;;;;;5.43;2.87;;;;;;;16.88;59.04;102025.25;5250042;28;20060;-76
2022/07/16 01:45:04;;;;;;;3.90;2.30;;;;;;;16.89;58.88;102037.53;5249271;28;20136;-77
2022/07/16 01:47:35;;;;;;;6.47;2.07;;;;;;;16.98;58.31;102030.78;5249207;28;20033;-77
2022/07/16 01:50:06;;;;;;;6.53;2.27;;;;;;;16.84;59.12;102041.44;5248850;28;20029;-76
2022/07/16 01:52:38;;;;;;;4.57;2.40;;;;;;;16.80;59.55;102032.88;5249262;28;20049;-76
2022/07/16 01:55:09;;;;;;;6.40;2.60;;;;;;;16.77;59.07;102028.59;5264616;28;20031;-77
2022/07/16 01:57:40;;;;;;;4.73;2.50;;;;;;;16.86;59.21;102042.19;5249447;28;20491;-77
2022/07/16 02:00:12;;;;;;;7.00;2.33;;;;;;;16.90;58.90;102027.78;5249185;28;20021;-76
2022/07/16 02:02:43;;;;;;;6.10;3.10;;;;;;;16.79;59.21;102032.00;5249577;28;20053;-77
2022/07/16 02:05:14;;;;;;;4.53;1.80;;;;;;;16.80;59.01;102025.78;5248144;28;20028;-76
2022/07/16 02:07:46;;;;;;;4.93;2.50;;;;;;;16.80;59.36;102027.56;5249829;28;20112;-76
2022/07/16 02:10:17;;;;;;;6.27;2.33;;;;;;;16.60;60.61;102018.34;5263928;28;20025;-77
2022/07/16 02:12:49;;;;;;;10.30;3.20;;;;;;;16.84;59.39;102029.06;5249664;28;20562;-76
2022/07/16 02:15:20;;;;;;;5.10;2.30;;;;;;;16.81;59.96;102021.31;5249422;28;20025;-76
2022/07/16 02:17:52;;;;;;;7.70;2.30;;;;;;;16.85;59.52;102021.97;5249143;28;20021;-77
2022/07/16 02:20:23;;;;;;;7.97;2.90;;;;;;;16.77;60.04;102017.19;5248415;28;20051;-77
2022/07/16 02:22:55;;;;;;;7.03;2.37;;;;;;;16.81;59.77;102016.88;5248739;28;20083;-76
2022/07/16 02:25:27;;;;;;;4.67;2.43;;;;;;;16.78;59.73;102017.09;5248975;28;20439;-76
2022/07/16 02:28:07;;;;;;;9.10;3.23;;;;;;;16.83;59.49;102018.56;5251730;28;20036;-77
2022/07/16 02:30:43;;;;;;;5.83;2.33;;;;;;;16.76;60.25;102019.00;5251304;28;20033;-77
2022/07/16 02:33:17;;;;;;;6.17;2.43;;;;;;;16.85;59.79;102022.81;5252960;28;20082;-77
2022/07/16 02:35:48;;;;;;;6.78;2.55;;;;;;;16.85;59.73;102014.88;5249881;28;20404;-77
2022/07/16 02:38:20;;;;;;;6.37;2.80;;;;;;;16.82;59.53;102015.09;5257854;28;20029;-76
2022/07/16 02:40:51;;;;;;;7.80;2.67;;;;;;;16.79;59.93;102010.00;5252764;28;20028;-77
2022/07/16 02:43:22;;;;;;;9.40;2.83;;;;;;;16.74;59.48;102009.47;5252609;28;20480;-77
2022/07/16 02:45:54;;;;;;;4.90;2.97;;;;;;;16.78;59.43;102013.59;5252589;28;20074;-77
2022/07/16 02:48:25;;;;;;;6.80;2.80;;;;;;;16.78;59.32;102009.16;5250523;28;20025;-77
2022/07/16 02:50:56;;;;;;;8.57;3.37;;;;;;;16.75;59.89;102013.81;5266459;28;20028;-76
2022/07/16 02:53:28;;;;;;;5.90;3.10;;;;;;;16.78;59.76;102008.31;5251093;28;20116;-77
2022/07/16 02:55:59;;;;;;;4.73;2.70;;;;;;;16.72;60.19;102014.84;5250899;28;20025;-77
2022/07/16 02:58:30;;;;;;;5.47;3.10;;;;;;;16.65;60.29;102003.84;5252456;28;20104;-77
2022/07/16 03:01:02;;;;;;;5.63;2.90;;;;;;;16.73;59.94;102013.06;5252064;28;20021;-77
2022/07/16 03:03:34;;;;;;;10.47;3.27;;;;;;;16.73;59.96;102015.69;5252592;28;20056;-77
2022/07/16 03:06:06;;;;;;;7.53;3.13;;;;;;;16.73;60.09;102016.56;5251033;28;20025;-77
2022/07/16 03:08:37;;;;;;;7.70;2.87;;;;;;;16.64;60.89;102017.16;5251995;28;20086;-76
2022/07/16 03:11:08;;;;;;;7.43;3.50;;;;;;;16.64;60.21;102012.72;5251586;28;20036;-77
2022/07/16 03:13:40;;;;;;;6.57;3.10;;;;;;;16.65;60.54;102025.00;5267168;28;20033;-76
2022/07/16 03:16:11;;;;;;;6.57;3.10;;;;;;;16.65;60.50;102027.63;5251845;28;20033;-77
2022/07/16 03:18:42;;;;;;;9.40;3.70;;;;;;;16.60;60.62;102008.59;5251648;28;20064;-77
2022/07/16 03:21:13;;;;;;;7.23;3.20;;;;;;;16.66;60.52;102016.13;5250752;28;20106;-76
2022/07/16 03:23:45;;;;;;;8.93;3.40;;;;;;;16.56;60.77;102020.34;5251814;28;20040;-77
2022/07/16 03:26:16;;;;;;;7.40;3.40;;;;;;;16.55;61.01;102023.91;5252445;28;20052;-77
2022/07/16 03:28:47;;;;;;;10.60;3.80;;;;;;;16.57;60.41;102022.03;5251791;28;20029;-77
2022/07/16 03:31:18;;;;;;;8.27;3.60;;;;;;;16.54;60.80;102023.09;5251133;28;20053;-76
2022/07/16 03:33:50;;;;;;;9.07;2.97;;;;;;;16.43;61.23;102018.50;5251787;28;20056;-76
2022/07/16 03:36:22;;;;;;;12.07;3.60;;;;;;;16.57;60.79;102027.31;5250340;28;20051;-77
2022/07/16 03:39:06;;;;;;;7.03;3.77;;;;;;;16.56;60.95;102034.41;5252013;28;20017;-77
2022/07/16 03:41:38;;;;;;;5.43;3.60;;;;;;;16.54;60.95;102038.09;5251915;28;20067;-77
2022/07/16 03:44:11;;;;;;;6.90;3.47;;;;;;;16.56;60.79;102028.28;5251132;28;20028;-76
2022/07/16 03:46:43;;;;;;;7.37;4.40;;;;;;;16.51;61.33;102033.03;5251867;28;20467;-76
2022/07/16 03:49:14;;;;;;;5.70;3.77;;;;;;;16.38;62.71;102044.41;5249853;28;20326;-76
2022/07/16 03:51:45;;;;;;;9.77;4.00;;;;;;;16.50;61.94;102037.47;5278447;28;20691;-76
2022/07/16 03:54:17;;;;;;;6.73;4.23;;;;;;;16.47;61.94;102031.53;5292570;28;20074;-77
2022/07/16 03:56:48;;;;;;;6.70;4.07;;;;;;;16.43;63.13;102046.75;5278978;28;20081;-77
2022/07/16 03:59:19;;;;;;;7.27;3.77;;;;;;;16.34;63.85;102048.19;5274611;28;20474;-77
2022/07/16 04:01:50;;;;;;;8.10;3.90;;;;;;;16.40;63.30;102050.44;5285276;28;20024;-77
2022/07/16 04:04:22;;;;;;;8.50;4.10;;;;;;;16.43;63.53;102050.25;5297263;28;20060;-77
2022/07/16 04:06:53;;;;;;;7.67;5.00;;;;;;;16.51;63.36;102056.81;5292725;28;20031;-77
2022/07/16 04:09:24;;;;;;;5.73;4.00;;;;;;;16.47;64.04;102063.25;5292574;28;20042;-76
2022/07/16 04:11:55;;;;;;;10.30;4.63;;;;;;;16.53;64.25;102058.41;5284825;28;20028;-77
2022/07/16 04:14:27;;;;;;;7.80;4.47;;;;;;;16.57;64.42;102067.84;5297046;28;21396;-77
2022/07/16 04:16:58;;;;;;;9.07;4.67;;;;;;;16.52;64.58;102061.16;5281423;28;20050;-77
2022/07/16 04:19:29;;;;;;;10.83;4.47;;;;;;;16.58;64.88;102055.47;5280654;28;20467;-77
2022/07/16 04:22:01;;;;;;;7.63;5.10;;;;;;;16.53;65.52;102068.16;5276305;28;20117;-77
2022/07/16 04:24:32;;;;;;;8.23;4.40;;;;;;;16.63;65.47;102077.19;5287312;28;20020;-78
2022/07/16 04:27:03;;;;;;;15.47;5.07;;;;;;;16.48;67.40;102071.06;5271186;28;20025;-76
2022/07/16 04:29:34;;;;;;;8.57;3.87;;;;;;;16.50;67.72;102063.91;5272392;28;20040;-78
2022/07/16 04:32:06;;;;;;;9.37;4.40;;;;;;;16.59;67.24;102072.16;5278674;28;20017;-73
2022/07/16 04:34:38;;;;;;;10.13;4.90;;;;;;;16.61;67.19;102079.06;5288155;28;20149;-78
2022/07/16 04:37:09;;;;;;;7.13;4.40;;;;;;;16.61;67.81;102075.56;5286626;28;20383;-78
2022/07/16 04:39:40;;;;;;;8.17;5.00;;;;;;;16.57;68.15;102075.78;5275540;28;20081;-78
2022/07/16 04:42:11;;;;;;;7.73;5.13;;;;;;;16.57;68.21;102080.22;5283009;28;20032;-78
2022/07/16 04:44:43;;;;;;;8.87;4.53;;;;;;;16.49;69.63;102074.59;5281489;28;20016;-78
2022/07/16 04:47:14;;;;;;;12.97;4.77;;;;;;;16.44;70.09;102070.44;5280347;28;20058;-78
2022/07/16 04:49:46;;;;;;;12.23;5.20;;;;;;;16.61;69.66;102086.16;5279184;28;20032;-78
2022/07/16 04:52:17;;;;;;;8.40;5.20;;;;;;;16.39;70.87;102077.81;5280778;28;20023;-78
2022/07/16 04:54:48;;;;;;;8.27;5.17;;;;;;;16.52;70.94;102079.66;5297454;28;20091;-78
2022/07/16 04:57:19;;;;;;;6.70;4.50;;;;;;;16.47;72.03;102079.13;5285970;28;20643;-78
2022/07/16 04:59:52;;;;;;;14.13;5.13;;;;;;;16.57;72.30;102091.63;5292366;28;20039;-78
2022/07/16 05:05:13;;;;;;;8.87;4.90;;;;;;;16.59;73.66;102098.63;5290944;28;20036;-75
2022/07/16 05:07:44;;;;;;;8.40;4.43;;;;;;;16.59;74.94;102096.81;5281503;28;20024;-75
2022/07/16 05:10:16;;;;;;;7.47;4.33;;;;;;;16.45;77.02;102089.78;5280620;28;20474;-74
2022/07/16 05:12:48;;;;;;;5.33;4.00;;;;;;;16.54;77.96;102094.50;5280818;28;20020;-75
2022/07/16 05:15:20;;;;;;;8.07;3.60;;;;;;;16.58;79.12;102097.78;5279805;28;21049;-74
2022/07/16 05:17:51;;;;;;;8.80;3.87;;;;;;;16.63;78.81;102108.06;5293128;28;20074;-74
2022/07/16 05:20:23;;;;;;;7.97;4.23;;;;;;;16.63;80.02;102108.91;5275423;28;20462;-75
2022/07/16 05:22:54;;;;;;;9.13;3.40;;;;;;;16.66;79.85;102107.84;5270446;28;20024;-75
2022/07/16 05:25:26;;;;;;;5.63;3.40;;;;;;;16.60;81.38;102103.81;5269708;28;20033;-75
2022/07/16 05:27:57;;;;;;;7.27;3.63;;;;;;;16.62;82.54;102115.13;5269631;28;20070;-75
2022/07/16 05:30:28;;;;;;;6.20;3.80;;;;;;;16.58;82.29;102103.06;5270738;28;20525;-75
2022/07/16 05:33:00;;;;;;;10.17;4.13;;;;;;;16.71;83.34;102116.31;5270411;28;20032;-74
2022/07/16 05:35:31;;;;;;;7.63;3.80;;;;;;;16.70;84.25;102117.28;5268752;28;20020;-75
2022/07/16 05:38:03;;;;;;;10.00;4.80;;;;;;;16.78;83.74;102120.28;5269316;28;20028;-75
2022/07/16 05:40:34;;;;;;;6.73;3.33;;;;;;;16.79;85.30;102123.78;5269026;28;20021;-75
2022/07/16 05:43:06;;;;;;;7.07;3.30;;;;;;;16.86;84.22;102124.22;5269146;28;20415;-76
2022/07/16 05:45:37;;;;;;;7.80;3.57;;;;;;;16.87;84.21;102124.09;5268909;28;20103;-75
2022/07/16 05:48:09;;;;;;;6.70;3.57;;;;;;;16.86;86.39;102122.38;5268666;28;20043;-75
2022/07/16 05:50:40;;;;;;;6.97;3.20;;;;;;;16.88;86.13;102120.50;5269199;28;20112;-75
2022/07/16 05:53:11;;;;;;;6.40;2.73;;;;;;;16.90;87.57;102123.03;5269474;28;20025;-74
2022/07/16 05:55:42;;;;;;;7.50;2.87;;;;;;;16.97;86.66;102126.13;5270188;28;20032;-75
2022/07/16 05:58:14;;;;;;;6.07;3.17;;;;;;;16.99;87.83;102127.72;5270059;28;20032;-75
2022/07/16 06:00:45;;;;;;;8.83;2.80;;;;;;;16.93;88.79;102115.75;5270418;28;20604;-74
2022/07/16 06:03:16;;;;;;;8.67;2.60;;;;;;;17.06;87.53;102128.16;5272729;28;20067;-74
2022/07/16 06:05:48;;;;;;;6.27;3.23;;;;;;;17.07;86.02;102123.72;5288466;28;20025;-75
2022/07/16 06:08:19;;;;;;;6.90;2.50;;;;;;;17.11;86.45;102131.38;5273375;28;20037;-74
2022/07/16 06:10:50;;;;;;;8.27;2.20;;;;;;;17.07;87.44;102137.78;5273620;28;20110;-74
2022/07/16 06:13:21;;;;;;;4.60;2.37;;;;;;;17.23;85.69;102150.00;5289369;28;20056;-75
2022/07/16 06:15:53;;;;;;;5.63;2.43;;;;;;;17.31;84.66;102149.50;5289756;28;20028;-75
2022/07/16 06:18:24;;;;;;;4.50;2.43;;;;;;;17.34;82.42;102158.09;5288768;28;20031;-75
2022/07/16 06:20:55;;;;;;;6.13;2.17;;;;;;;17.35;83.17;102148.34;5273109;28;20029;-74
2022/07/16 06:23:26;;;;;;;5.17;1.90;;;;;;;17.36;80.22;102150.03;5288042;28;20115;-75
2022/07/16 06:25:58;;;;;;;6.27;1.63;;;;;;;17.41;79.06;102162.03;5273606;28;20028;-74
2022/07/16 06:28:29;;;;;;;6.43;1.70;;;;;;;17.52;78.51;102157.78;5289334;28;20169;-74
2022/07/16 06:31:00;;;;;;;6.83;1.10;;;;;;;17.57;78.34;102166.25;5277766;28;20390;-75
2022/07/16 06:33:32;;;;;;;5.67;1.43;;;;;;;17.53;79.96;102162.13;5294589;28;20020;-74
2022/07/16 06:36:05;;;;;;;5.73;2.03;;;;;;;17.64;79.60;102172.84;5292651;28;20032;-75
2022/07/16 06:38:36;;;;;;;5.00;1.58;;;;;;;17.73;77.54;102166.03;5294462;28;20501;-74
2022/07/16 06:41:08;;;;;;;4.87;1.57;;;;;;;17.74;76.15;102174.81;5293931;28;20109;-74
2022/07/16 06:43:39;;;;;;;5.37;1.90;;;;;;;17.88;76.57;102179.16;5295259;28;20107;-74
2022/07/16 06:46:10;;;;;;;6.13;1.67;;;;;;;17.89;75.23;102168.44;5294565;28;20028;-75
2022/07/16 06:48:42;;;;;;;4.47;1.70;;;;;;;18.02;75.26;102176.41;5293249;28;20466;-74
2022/07/16 06:51:13;;;;;;;8.60;1.60;;;;;;;18.14;76.00;102184.47;5293496;28;20550;-74
2022/07/16 06:53:44;;;;;;;3.80;1.30;;;;;;;18.22;73.92;102184.75;5293665;28;20096;-74
2022/07/16 06:56:16;;;;;;;3.70;1.37;;;;;;;18.26;72.92;102185.38;5294793;28;20036;-74
2022/07/16 06:58:47;;;;;;;4.70;1.23;;;;;;;18.22;70.04;102178.63;5294688;28;20653;-74
2022/07/16 07:01:18;;;;;;;4.57;1.20;;;;;;;18.27;69.53;102187.09;5293276;28;20036;-74
2022/07/16 07:03:50;;;;;;;2.40;1.30;;;;;;;18.41;69.25;102203.81;5285123;28;20089;-74
2022/07/16 07:06:22;;;;;;;3.57;1.83;;;;;;;18.43;67.30;102201.91;5280433;28;20017;-75
2022/07/16 07:08:53;;;;;;;4.03;1.30;;;;;;;18.52;68.68;102206.53;5272941;28;20470;-74
2022/07/16 07:11:24;;;;;;;2.57;0.97;;;;;;;18.68;65.07;102216.88;5273309;28;20016;-74
2022/07/16 07:13:56;;;;;;;5.70;1.07;;;;;;;18.86;63.70;102214.69;5272061;28;20055;-74
2022/07/16 07:16:27;;;;;;;5.40;1.20;;;;;;;19.21;62.78;102218.38;5272878;28;20054;-75
2022/07/16 07:18:58;;;;;;;6.00;1.20;;;;;;;19.47;59.23;102222.66;5287193;28;20029;-74
2022/07/16 07:21:30;;;;;;;4.07;0.90;;;;;;;19.80;55.96;102215.69;5281161;28;20058;-74
2022/07/16 07:24:01;;;;;;;3.80;0.90;;;;;;;20.38;56.07;102221.88;5282758;28;20028;-74
2022/07/16 07:26:33;;;;;;;4.87;1.10;;;;;;;20.73;53.92;102225.31;5278568;28;20463;-75
2022/07/16 07:29:04;;;;;;;4.03;1.13;;;;;;;20.85;52.94;102225.25;5273017;28;20106;-74
2022/07/16 07:31:35;;;;;;;3.80;1.00;;;;;;;21.16;52.30;102230.72;5272342;28;20028;-75
2022/07/16 07:34:06;;;;;;;1.40;0.90;;;;;;;21.59;52.09;102228.06;5285075;28;20070;-74
2022/07/16 07:36:38;;;;;;;3.97;1.10;;;;;;;22.05;50.04;102230.41;5286112;28;20024;-71
2022/07/16 07:39:09;;;;;;;5.35;0.90;;;;;;;22.20;49.97;102229.06;5272008;28;20027;-71
2022/07/16 07:41:41;;;;;;;2.47;0.80;;;;;;;22.93;50.04;102240.47;5287753;28;20032;-74
2022/07/16 07:44:12;;;;;;;2.03;0.82;;;;;;;23.06;47.24;102239.31;5287129;28;20162;-76
2022/07/16 07:46:44;;;;;;;1.52;1.00;;;;;;;23.34;46.67;102231.41;5272239;28;20036;-76
2022/07/16 07:49:15;;;;;;;3.80;1.27;;;;;;;22.64;47.97;102235.94;5271162;28;20518;-74
2022/07/16 07:51:46;;;;;;;2.47;0.90;;;;;;;22.85;47.39;102242.97;5282253;28;20063;-74
2022/07/16 07:54:17;;;;;;;3.72;1.05;;;;;;;23.47;47.33;102243.66;5292933;28;20047;-75
2022/07/16 07:56:49;;;;;;;5.85;1.25;;;;;;;23.80;45.91;102247.69;5293162;28;20474;-75
2022/07/16 07:59:20;;;;;;;3.88;1.00;;;;;;;23.42;45.33;102244.94;5293630;28;20029;-73
2022/07/16 08:01:52;;;;;;;4.85;1.17;;;;;;;23.03;45.49;102248.47;5292310;28;20028;-74
2022/07/16 08:04:24;;;;;;;3.10;1.00;;;;;;;22.72;46.30;102254.78;5279366;28;20036;-74
2022/07/16 08:06:55;;;;;;;2.50;1.00;;;;;;;22.62;46.03;102248.56;5282557;28;20031;-73
2022/07/16 08:09:26;;;;;;;3.67;1.67;;;;;;;22.56;45.57;102255.28;5281338;28;20036;-73
2022/07/16 08:11:58;;;;;;;3.97;0.98;;;;;;;22.51;46.98;102259.34;5281501;28;20037;-74
2022/07/16 08:14:29;;;;;;;5.95;1.40;;;;;;;22.54;46.94;102259.06;5280836;28;20052;-74
2022/07/16 08:17:00;;;;;;;3.22;1.65;;;;;;;22.12;48.11;102258.25;5272399;28;20048;-72
2022/07/16 08:19:32;;;;;;;4.43;1.05;;;;;;;22.07;48.17;102257.78;5270620;28;20028;-74
2022/07/16 08:22:04;;;;;;;3.08;1.17;;;;;;;22.21;48.44;102268.13;5270824;28;20037;-77
2022/07/16 08:27:25;;;;;;;2.78;1.02;;;;;;;22.06;49.48;102280.13;5270427;28;20500;-79
2022/07/16 08:29:56;;;;;;;3.53;1.50;;;;;;;21.98;49.65;102286.09;5271172;28;20016;-73
2022/07/16 08:32:28;;;;;;;4.55;1.55;;;;;;;22.13;49.11;102278.63;5270853;28;20062;-78
2022/07/16 08:34:59;;;;;;;4.63;1.10;;;;;;;22.12;48.71;102275.09;5269057;28;20545;-77
2022/07/16 08:37:33;;;;;;;5.32;1.33;;;;;;;21.97;48.32;102293.28;5271224;28;20425;-79
2022/07/16 08:40:08;;;;;;;2.25;1.10;;;;;;;21.97;47.83;102279.97;5270973;28;20291;-78
2022/07/16 08:42:40;;;;;;;9.13;1.85;;;;;;;22.04;48.13;102292.75;5271613;28;20081;-79
2022/07/16 08:45:13;;;;;;;6.70;1.83;;;;;;;22.14;47.24;102296.31;5270808;28;20040;-79
2022/07/16 08:47:45;;;;;;;3.17;1.00;;;;;;;22.34;46.78;102285.72;5270577;28;20033;-79
2022/07/16 08:50:16;;;;;;;5.05;1.10;;;;;;;22.13;46.56;102291.97;5269643;28;20031;-79
2022/07/16 08:52:51;;;;;;;4.35;1.00;;;;;;;22.22;46.25;102303.63;5270784;28;20047;-79
2022/07/16 08:55:26;;;;;;;4.03;1.27;;;;;;;22.36;46.38;102303.28;5286325;28;20017;-78
2022/07/16 08:57:58;;;;;;;3.80;1.15;;;;;;;22.10;45.67;102310.88;5286190;28;20055;-78
2022/07/16 09:00:29;;;;;;;6.93;1.98;;;;;;;22.54;46.90;102309.78;5271096;28;20109;-79
2022/07/16 09:03:01;;;;;;;4.57;1.00;;;;;;;22.38;45.38;102303.13;5275304;28;20094;-78
2022/07/16 09:05:32;;;;;;;6.35;1.40;;;;;;;22.35;45.61;102312.28;5269391;28;20032;-79
2022/07/16 09:08:04;;;;;;;3.03;1.23;;;;;;;22.34;46.41;102312.41;5270217;28;20040;-79
2022/07/16 09:10:37;;;;;;;3.53;1.20;;;;;;;22.28;45.74;102318.25;5271332;28;20035;-79
2022/07/16 09:13:10;;;;;;;4.47;1.08;;;;;;;22.62;45.69;102317.97;5269438;28;20032;-78
2022/07/16 09:15:43;;;;;;;5.93;1.67;;;;;;;22.28;44.90;102320.94;5268996;28;20027;-79
2022/07/16 09:18:25;;;;;;;3.83;1.03;;;;;;;22.35;45.42;102316.75;5270036;28;20039;-77
2022/07/16 09:21:00;;;;;;;3.50;1.23;;;;;;;22.31;44.51;102323.31;5269797;28;20024;-72
2022/07/16 09:23:37;;;;;;;5.90;1.45;;;;;;;22.24;44.30;102325.69;5270552;28;20029;-79
2022/07/16 09:26:10;;;;;;;2.58;0.98;;;;;;;22.15;45.03;102323.84;5269830;28;20387;-79
2022/07/16 09:28:50;;;;;;;5.20;1.00;;;;;;;22.59;45.11;102323.56;5270875;28;20416;-79
2022/07/16 09:31:41;;;;;;;3.05;1.00;;;;;;;22.79;45.40;102315.66;5269833;28;20086;-79
2022/07/16 09:34:15;;;;;;;5.05;1.00;;;;;;;22.94;44.48;102327.63;5268648;28;20048;-80
2022/07/16 09:37:16;;;;;;;2.80;1.00;;;;;;;22.95;43.66;102321.28;5272536;28;20062;-79
2022/07/16 09:39:47;;;;;;;3.85;1.20;;;;;;;22.91;43.00;102327.91;5261600;28;20067;-79
2022/07/16 09:42:36;;;;;;;2.72;0.85;;;;;;;23.05;43.88;102318.66;5274447;28;20039;-80
2022/07/16 09:45:18;;;;;;;3.08;0.93;;;;;;;23.36;43.77;102330.16;5274579;28;20025;-79
2022/07/16 09:47:50;;;;;;;3.58;1.15;;;;;;;23.06;41.67;102324.81;5274080;28;20024;-79
2022/07/16 09:50:21;;;;;;;1.90;0.98;;;;;;;23.32;42.66;102341.16;5274169;28;20053;-79
2022/07/16 09:52:53;;;;;;;3.05;1.00;;;;;;;23.23;41.43;102333.13;5274584;28;20016;-79
2022/07/16 09:55:24;;;;;;;4.07;0.93;;;;;;;23.62;41.30;102343.84;5272395;28;20055;-79
2022/07/16 09:58:02;;;;;;;4.65;1.35;;;;;;;23.52;41.61;102348.34;5274388;28;20032;-79
2022/07/16 10:00:34;;;;;;;2.22;0.75;;;;;;;23.69;41.37;102339.63;5273492;28;20032;-79
2022/07/16 10:03:05;;;;;;;2.55;0.98;;;;;;;23.62;40.27;102346.50;5274289;28;20048;-79
2022/07/16 10:05:36;;;;;;;5.75;1.52;;;;;;;23.77;40.55;102348.75;5273041;28;20032;-79
2022/07/16 10:08:08;;;;;;;3.15;1.10;;;;;;;23.84;40.64;102349.03;5273929;28;20032;-79
2022/07/16 10:10:39;;;;;;;4.25;1.13;;;;;;;23.64;40.16;102357.91;5273874;28;20044;-78
2022/07/16 10:13:12;;;;;;;4.75;1.00;;;;;;;23.74;39.71;102354.41;5273271;28;20032;-79
2022/07/16 10:15:46;;;;;;;2.30;1.07;;;;;;;23.79;38.92;102362.84;5274475;28;20028;-79
2022/07/16 10:18:31;;;;;;;4.00;1.35;;;;;;;23.91;39.07;102356.31;5275985;28;20101;-79
2022/07/16 10:21:15;;;;;;;1.77;0.68;;;;;;;23.80;38.02;102356.50;5276459;28;20497;-79
2022/07/16 10:24:13;;;;;;;4.13;1.10;;;;;;;24.10;39.12;102364.44;5274196;28;20039;-79
2022/07/16 10:26:44;;;;;;;2.25;0.88;;;;;;;23.87;38.67;102368.31;5274225;28;20033;-79
2022/07/16 10:29:16;;;;;;;5.07;1.15;;;;;;;24.13;37.98;102372.19;5274067;28;20081;-79
2022/07/16 10:34:40;;;;;;;3.15;1.08;;;;;;;23.92;38.04;102362.50;5273678;28;20488;-79
2022/07/16 10:37:28;;;;;;;2.33;0.95;;;;;;;24.32;37.98;102379.34;5273151;28;20807;-79
2022/07/16 10:40:06;;;;;;;4.28;1.00;;;;;;;24.09;37.33;102374.31;5273364;28;20029;-80
2022/07/16 10:42:37;;;;;;;4.55;1.15;;;;;;;23.78;37.60;102370.00;5276644;28;20501;-79
2022/07/16 10:45:08;;;;;;;4.68;1.00;;;;;;;23.80;38.56;102370.72;5274628;28;20056;-80
2022/07/16 10:47:42;;;;;;;3.63;1.13;;;;;;;23.87;38.18;102370.97;5288398;28;20021;-80
2022/07/16 10:50:16;;;;;;;3.65;0.80;;;;;;;24.17;38.73;102381.63;5272792;28;20028;-79
2022/07/16 10:52:49;;;;;;;4.43;1.20;;;;;;;23.96;38.54;102366.59;5272702;28;20089;-80
2022/07/16 10:55:32;;;;;;;6.57;1.10;;;;;;;23.93;38.33;102377.56;5272925;28;20513;-78
2022/07/16 10:58:03;;;;;;;2.50;0.95;;;;;;;24.05;37.68;102383.63;5272275;28;20023;-78
2022/07/16 11:00:35;;;;;;;2.22;1.23;;;;;;;24.31;37.10;102383.00;5273166;28;20386;-79
2022/07/16 11:03:08;;;;;;;4.70;1.45;;;;;;;24.55;36.07;102380.78;5271587;28;20480;-79
2022/07/16 11:05:41;;;;;;;3.70;1.20;;;;;;;24.50;36.11;102366.03;5272900;28;20024;-79
2022/07/16 11:08:13;;;;;;;3.75;1.00;;;;;;;25.02;36.18;102371.81;5272943;28;20024;-80
2022/07/16 11:10:44;;;;;;;3.03;0.90;;;;;;;24.96;36.37;102367.09;5271838;28;20030;-78
2022/07/16 11:13:17;;;;;;;4.22;1.15;;;;;;;24.71;37.60;102381.00;5272830;28;20032;-79
2022/07/16 11:15:48;;;;;;;6.93;1.48;;;;;;;24.47;37.11;102381.53;5273055;28;20032;-79
2022/07/16 11:18:20;;;;;;;3.20;1.83;;;;;;;24.31;37.88;102390.19;5271860;28;20035;-79
2022/07/16 11:20:51;;;;;;;5.35;1.02;;;;;;;23.95;38.45;102378.28;5272821;28;20058;-79
2022/07/16 11:23:22;;;;;;;4.57;1.17;;;;;;;24.38;37.77;102393.97;5272664;28;20068;-79
2022/07/16 11:25:55;;;;;;;3.28;1.00;;;;;;;24.70;37.30;102387.34;5272220;28;20175;-78
2022/07/16 11:28:27;;;;;;;4.82;1.20;;;;;;;24.89;36.77;102386.41;5276027;28;20039;-76
2022/07/16 11:31:06;;;;;;;3.33;1.17;;;;;;;24.87;36.97;102385.69;5287504;28;20024;-76
2022/07/16 11:33:38;;;;;;;2.85;1.30;;;;;;;24.96;36.48;102385.84;5274158;28;20064;-78
2022/07/16 11:36:13;;;;;;;2.53;1.05;;;;;;;24.49;36.74;102401.00;5287188;28;20174;-78
2022/07/16 11:38:44;;;;;;;6.90;1.38;;;;;;;24.15;36.93;102395.16;5271352;28;20027;-73
2022/07/16 11:41:16;;;;;;;4.00;1.40;;;;;;;24.12;36.37;102397.25;5278655;28;20486;-77
2022/07/16 11:43:47;;;;;;;2.25;1.10;;;;;;;24.07;37.24;102397.69;5277267;28;20422;-77
2022/07/16 11:46:24;;;;;;;3.78;1.42;;;;;;;24.15;37.66;102396.97;5281987;28;20019;-77
2022/07/16 11:48:55;;;;;;;3.55;1.10;;;;;;;24.36;37.29;102399.47;5281998;28;20103;-77
2022/07/16 11:51:28;;;;;;;4.10;1.35;;;;;;;24.55;36.30;102399.53;5279510;28;20095;-72
2022/07/16 11:53:59;;;;;;;5.32;1.60;;;;;;;24.25;35.61;102400.50;5271743;28;20077;-77
2022/07/16 11:56:33;;;;;;;4.22;1.25;;;;;;;24.55;36.43;102403.06;5282661;28;20024;-74
2022/07/16 11:59:16;;;;;;;;;;;;;;;24.94;36.78;102404.75;5271467;28;20032;-82
2022/07/16 12:01:57;;;;;;;3.95;1.08;;;;;;;24.67;35.87;102413.56;5272191;28;19942;-77